Time;durP1;ratioP1;P1;durP2;ratioP2;P2;SDS_P1;SDS_P2;PMS_P1;PMS_P2;Temp;Humidity;BMP_temperature;BMP_pressure;BME280_temperature;BME280_humidity;BME280_pressure;Samples;Min_cycle;Max_cycle;Signal;HPM_P1;HPM_P2
2024/01/07 00:00:58;;;;;;;97.53;39.15;;;;;;;0.28;99.16;98632.41;5029752;28;20163;-78
2024/01/07 00:03:23;;;;;;;100.65;38.28;;;;;;;-0.41;99.79;98623.41;5024729;28;20056;-78
2024/01/07 00:05:48;;;;;;;86.72;35.40;;;;;;;-0.30;100.00;98621.13;5024315;28;20073;-78
2024/01/07 00:08:14;;;;;;;95.90;38.55;;;;;;;-0.44;100.00;98624.63;5026606;28;20029;-78
2024/01/07 00:10:39;;;;;;;95.20;36.60;;;;;;;0.41;100.00;98638.59;5029328;28;20037;-78
2024/01/07 00:13:04;;;;;;;98.43;41.03;;;;;;;-0.38;100.00;98642.22;5030648;28;20035;-77
2024/01/07 00:15:31;;;;;;;103.47;38.03;;;;;;;-0.17;100.00;98650.13;5028032;28;20466;-77
2024/01/07 00:17:56;;;;;;;103.22;39.30;;;;;;;-0.28;100.00;98649.78;5027225;28;20108;-78
2024/01/07 00:20:22;;;;;;;109.22;40.50;;;;;;;-0.45;100.00;98643.94;5021833;28;20486;-78
2024/01/07 00:22:47;;;;;;;106.85;40.78;;;;;;;-0.05;100.00;98639.97;5024663;28;20029;-78
2024/01/07 00:25:12;;;;;;;112.82;42.78;;;;;;;-0.11;100.00;98652.00;5026680;28;20057;-77
2024/01/07 00:27:38;;;;;;;95.75;40.35;;;;;;;0.38;100.00;98649.47;5024584;28;20197;-77
2024/01/07 00:30:03;;;;;;;111.20;39.15;;;;;;;-0.09;100.00;98646.59;5009162;28;20060;-77
2024/01/07 00:32:29;;;;;;;116.93;42.45;;;;;;;0.12;100.00;98646.59;5031369;28;20033;-76
2024/01/07 00:34:54;;;;;;;104.93;39.78;;;;;;;-0.21;100.00;98648.03;5029165;28;20041;-78
2024/01/07 00:37:20;;;;;;;113.00;42.30;;;;;;;-0.18;100.00;98655.56;5026750;28;20040;-78
2024/01/07 00:39:45;;;;;;;112.25;42.33;;;;;;;-0.24;100.00;98651.84;5027942;28;20491;-78
2024/01/07 00:42:11;;;;;;;102.75;41.55;;;;;;;-0.28;100.00;98661.09;5027461;28;20034;-77
2024/01/07 00:44:37;;;;;;;111.00;43.13;;;;;;;0.18;100.00;98666.00;5032003;28;20038;-78
2024/01/07 00:47:03;;;;;;;112.90;42.47;;;;;;;0.21;100.00;98657.78;5031629;28;20433;-79
2024/01/07 00:49:28;;;;;;;116.78;44.28;;;;;;;0.85;99.94;98669.84;5032823;28;20087;-78
2024/01/07 00:51:53;;;;;;;113.93;42.45;;;;;;;0.22;98.84;98664.66;5032024;28;20033;-78
2024/01/07 00:54:19;;;;;;;116.50;43.70;;;;;;;0.69;98.81;98660.44;5032005;28;20083;-78
2024/01/07 00:56:45;;;;;;;114.80;41.78;;;;;;;0.15;99.79;98674.28;5035436;28;20029;-78
2024/01/07 00:59:10;;;;;;;113.00;44.75;;;;;;;0.11;99.47;98676.44;5025186;28;20033;-78
2024/01/07 01:01:36;;;;;;;118.10;44.38;;;;;;;0.09;99.09;98693.38;5027808;28;20059;-78
2024/01/07 01:04:01;;;;;;;117.72;46.75;;;;;;;0.34;99.54;98692.03;5030587;28;20105;-78
2024/01/07 01:06:26;;;;;;;123.10;45.58;;;;;;;0.42;98.23;98686.63;5026046;28;20029;-78
2024/01/07 01:08:52;;;;;;;114.45;43.60;;;;;;;0.48;98.94;98693.78;5021791;28;20053;-79
2024/01/07 01:11:17;;;;;;;109.65;43.97;;;;;;;-0.52;99.17;98702.50;5033989;28;20914;-78
2024/01/07 01:13:42;;;;;;;121.78;45.10;;;;;;;0.52;100.00;98702.91;5033562;28;20048;-78
2024/01/07 01:16:08;;;;;;;127.40;47.72;;;;;;;0.11;99.61;98713.16;5032460;28;20074;-77
2024/01/07 01:18:33;;;;;;;113.60;42.30;;;;;;;0.02;98.75;98705.63;5022444;28;20034;-76
2024/01/07 01:20:58;;;;;;;103.78;44.90;;;;;;;-0.06;98.87;98717.84;5032882;28;20219;-76
2024/01/07 01:23:24;;;;;;;113.07;45.55;;;;;;;-0.59;99.88;98709.50;5032104;28;20021;-76
2024/01/07 01:25:49;;;;;;;108.80;45.45;;;;;;;-0.43;100.00;98722.41;5032992;28;20513;-76
2024/01/07 01:28:14;;;;;;;120.22;44.72;;;;;;;-0.66;100.00;98729.53;5029471;28;20153;-78
2024/01/07 01:30:41;;;;;;;110.80;42.83;;;;;;;0.56;100.00;98709.41;5028564;28;20087;-79
2024/01/07 01:33:06;;;;;;;112.40;44.88;;;;;;;-0.23;99.83;98729.53;5028612;28;20405;-79
2024/01/07 01:35:32;;;;;;;116.97;45.42;;;;;;;-0.51;100.00;98727.75;5033368;28;20117;-78
2024/01/07 01:37:57;;;;;;;106.30;43.78;;;;;;;-0.48;100.00;98732.63;5021342;28;20029;-78
2024/01/07 01:40:22;;;;;;;118.38;46.55;;;;;;;-0.26;100.00;98732.50;5029816;28;20057;-78
2024/01/07 01:42:48;;;;;;;116.88;47.33;;;;;;;-0.21;99.80;98734.59;5026691;28;20413;-79
2024/01/07 01:45:14;;;;;;;118.40;43.60;;;;;;;0.12;100.00;98735.81;5033920;28;20026;-79
2024/01/07 01:47:41;;;;;;;112.38;45.22;;;;;;;0.41;99.65;98740.16;5034168;28;20037;-79
2024/01/07 01:50:06;;;;;;;124.38;45.78;;;;;;;-0.06;99.40;98749.31;5030261;28;20048;-79
2024/01/07 01:52:32;;;;;;;107.93;47.67;;;;;;;-0.22;99.01;98744.25;5026679;28;20072;-79
2024/01/07 01:54:59;;;;;;;111.45;43.15;;;;;;;-0.18;99.04;98750.78;5028914;28;20424;-78
2024/01/07 01:57:32;;;;;;;115.88;43.63;;;;;;;-0.28;100.00;98750.22;5028864;28;20034;-78
2024/01/07 02:00:02;;;;;;;96.32;41.72;;;;;;;-0.79;100.00;98757.16;5027770;28;20478;-79
2024/01/07 02:02:27;;;;;;;107.07;41.92;;;;;;;-0.26;100.00;98744.78;5029152;28;20120;-79
2024/01/07 02:04:53;;;;;;;117.13;44.97;;;;;;;0.02;100.00;98756.28;5029877;28;20120;-80
2024/01/07 02:07:18;;;;;;;95.90;41.65;;;;;;;-0.63;100.00;98753.56;5022739;28;20479;-79
2024/01/07 02:09:44;;;;;;;98.55;41.50;;;;;;;-0.06;100.00;98765.03;5025269;28;20018;-79
2024/01/07 02:12:11;;;;;;;93.35;39.72;;;;;;;-0.04;99.19;98770.91;5020751;28;20037;-80
2024/01/07 02:14:37;;;;;;;83.30;36.00;;;;;;;0.11;97.87;98757.78;5029738;28;20021;-80
2024/01/07 02:17:03;;;;;;;89.63;38.03;;;;;;;-0.37;98.04;98769.66;5031667;28;20036;-79
2024/01/07 02:19:28;;;;;;;101.95;42.60;;;;;;;-0.09;99.32;98778.53;5025756;28;20032;-79
2024/01/07 02:21:53;;;;;;;105.60;40.03;;;;;;;0.14;98.73;98765.28;5026566;28;20065;-79
2024/01/07 02:24:19;;;;;;;90.28;36.00;;;;;;;-0.55;98.25;98768.41;5026717;28;20037;-77
2024/01/07 02:26:44;;;;;;;90.53;38.60;;;;;;;-0.24;98.60;98776.94;5027403;28;20033;-76
2024/01/07 02:29:10;;;;;;;86.40;38.72;;;;;;;-0.57;98.89;98779.09;5024264;28;20124;-76
2024/01/07 02:31:35;;;;;;;86.05;38.88;;;;;;;0.11;99.22;98764.84;5026599;28;20032;-78
2024/01/07 02:34:00;;;;;;;85.45;38.40;;;;;;;0.17;98.13;98777.22;5035227;28;20030;-78
2024/01/07 02:36:26;;;;;;;85.68;38.67;;;;;;;-0.62;97.71;98775.34;5028928;28;20124;-78
2024/01/07 02:38:51;;;;;;;95.90;39.70;;;;;;;-0.26;98.54;98768.41;5027427;28;20037;-78
2024/01/07 02:41:16;;;;;;;88.20;37.38;;;;;;;-0.36;97.90;98788.84;5024886;28;20037;-78
2024/01/07 02:43:42;;;;;;;89.80;35.83;;;;;;;0.32;98.15;98786.69;5025119;28;20105;-78
2024/01/07 02:46:07;;;;;;;84.35;38.05;;;;;;;-0.02;97.76;98782.03;5031242;28;20026;-77
2024/01/07 02:48:33;;;;;;;84.28;37.72;;;;;;;-0.55;97.65;98789.38;5025773;28;20053;-78
2024/01/07 02:50:58;;;;;;;90.07;37.85;;;;;;;0.04;98.58;98790.19;5047734;28;20033;-78
2024/01/07 02:53:24;;;;;;;86.53;36.72;;;;;;;0.36;98.25;98784.50;5026792;28;20037;-78
2024/01/07 02:55:49;;;;;;;91.10;37.83;;;;;;;-0.29;96.52;98795.00;5024301;28;20033;-78
2024/01/07 02:58:14;;;;;;;92.13;38.40;;;;;;;0.57;98.02;98800.28;5026840;28;20402;-79
2024/01/07 03:00:40;;;;;;;95.95;39.08;;;;;;;0.68;97.21;98795.38;5025179;28;20498;-78
2024/01/07 03:03:05;;;;;;;79.65;37.08;;;;;;;-0.47;95.97;98797.16;5031943;28;20026;-78
2024/01/07 03:05:32;;;;;;;70.80;33.47;;;;;;;-0.84;98.55;98804.06;5029207;28;20037;-78
2024/01/07 03:07:59;;;;;;;68.93;32.17;;;;;;;-0.31;98.54;98810.09;5029257;28;20079;-77
2024/01/07 03:10:25;;;;;;;72.80;34.08;;;;;;;-0.49;97.79;98805.19;5027801;28;20033;-79
2024/01/07 03:12:50;;;;;;;69.88;30.88;;;;;;;-0.64;97.96;98809.63;5031098;28;20410;-78
2024/01/07 03:15:15;;;;;;;71.20;33.50;;;;;;;-0.15;98.05;98809.91;5028952;28;20056;-78
2024/01/07 03:17:41;;;;;;;58.30;28.77;;;;;;;-0.57;97.60;98823.63;5026726;28;20029;-77
2024/01/07 03:20:07;;;;;;;58.63;29.38;;;;;;;-0.97;98.12;98810.88;5028770;28;20137;-76
2024/01/07 03:22:32;;;;;;;61.30;30.52;;;;;;;-0.47;100.00;98815.50;5029506;28;20033;-76
2024/01/07 03:24:58;;;;;;;56.00;27.27;;;;;;;-1.08;99.22;98827.00;5026690;28;20033;-76
2024/01/07 03:27:23;;;;;;;72.32;30.05;;;;;;;-0.88;99.10;98822.94;5027214;28;20117;-76
2024/01/07 03:29:48;;;;;;;71.53;31.10;;;;;;;-0.97;99.23;98826.59;5025915;28;20087;-76
2024/01/07 03:32:14;;;;;;;61.70;29.00;;;;;;;-0.57;99.59;98828.88;5030429;28;20081;-76
2024/01/07 03:34:40;;;;;;;61.13;29.55;;;;;;;-0.55;98.48;98826.91;5027488;28;20057;-76
2024/01/07 03:37:05;;;;;;;54.45;28.60;;;;;;;-0.14;97.86;98828.09;5025214;28;20124;-77
2024/01/07 03:39:34;;;;;;;56.10;28.45;;;;;;;-0.35;96.89;98832.44;5024566;28;20037;-75
2024/01/07 03:41:59;;;;;;;52.90;25.52;;;;;;;-0.75;96.48;98831.00;5028599;28;20021;-76
2024/01/07 03:44:24;;;;;;;48.85;26.58;;;;;;;-1.04;96.54;98830.91;5028828;28;20049;-76
2024/01/07 03:46:50;;;;;;;56.33;25.63;;;;;;;-0.90;98.36;98828.34;5028057;28;20033;-76
2024/01/07 03:49:17;;;;;;;49.63;25.27;;;;;;;-1.07;98.20;98836.50;5024333;28;20105;-76
2024/01/07 03:51:43;;;;;;;50.03;25.27;;;;;;;-1.04;98.03;98847.44;5027555;28;20025;-78
2024/01/07 03:54:08;;;;;;;51.03;25.73;;;;;;;-1.27;99.22;98851.84;5025657;28;20036;-78
2024/01/07 03:56:34;;;;;;;46.80;24.08;;;;;;;-0.84;99.26;98835.50;5031406;28;20071;-77
2024/01/07 03:58:59;;;;;;;47.95;24.92;;;;;;;-1.31;98.45;98834.06;5028332;28;20041;-78
2024/01/07 04:01:24;;;;;;;44.67;25.25;;;;;;;-1.29;99.49;98846.00;5028976;28;20034;-79
2024/01/07 04:03:50;;;;;;;48.88;24.23;;;;;;;-1.49;98.60;98857.06;5027008;28;20167;-79
2024/01/07 04:06:15;;;;;;;47.90;24.15;;;;;;;-1.50;99.32;98856.22;5028738;28;20037;-79
2024/01/07 04:08:40;;;;;;;49.72;24.60;;;;;;;-0.96;100.00;98860.47;5031105;28;20504;-76
2024/01/07 04:11:06;;;;;;;50.03;25.65;;;;;;;-1.38;99.12;98867.13;5024592;28;20048;-76
2024/01/07 04:13:31;;;;;;;54.85;25.80;;;;;;;-1.11;98.89;98858.75;5030477;28;20112;-76
2024/01/07 04:15:57;;;;;;;50.63;25.00;;;;;;;-1.52;97.88;98856.41;5029369;28;20786;-76
2024/01/07 04:18:22;;;;;;;49.88;25.48;;;;;;;-0.81;98.46;98863.94;5025302;28;20458;-77
2024/01/07 04:20:47;;;;;;;48.08;25.42;;;;;;;-1.52;97.45;98869.50;5026986;28;20029;-77
2024/01/07 04:23:13;;;;;;;53.58;28.52;;;;;;;-1.28;98.54;98872.94;5030881;28;20375;-77
2024/01/07 04:25:40;;;;;;;52.13;28.17;;;;;;;-1.53;97.60;98888.78;5032020;28;20034;-77
2024/01/07 04:28:06;;;;;;;51.72;25.50;;;;;;;-1.37;98.49;98879.22;5029075;28;20390;-77
2024/01/07 04:30:31;;;;;;;47.25;24.63;;;;;;;-1.60;98.39;98890.47;5030880;28;20030;-77
2024/01/07 04:32:57;;;;;;;50.17;24.58;;;;;;;-1.47;99.16;98883.88;5029968;28;20041;-77
2024/01/07 04:35:22;;;;;;;54.80;27.67;;;;;;;-1.55;98.94;98896.00;5026830;28;20037;-77
2024/01/07 04:37:48;;;;;;;55.92;28.67;;;;;;;-1.27;99.60;98895.53;5035153;28;20478;-77
2024/01/07 04:40:13;;;;;;;56.10;30.30;;;;;;;-1.28;99.31;98901.75;5029212;28;20050;-77
2024/01/07 04:42:39;;;;;;;56.88;28.80;;;;;;;-1.58;99.81;98891.13;5030904;28;20029;-77
2024/01/07 04:45:04;;;;;;;60.92;30.38;;;;;;;-0.93;99.16;98888.94;5032773;28;20033;-77
2024/01/07 04:47:33;;;;;;;47.65;25.65;;;;;;;-1.63;98.32;98906.50;5035531;28;20086;-77
2024/01/07 04:49:59;;;;;;;59.95;28.52;;;;;;;-0.80;98.73;98902.25;5032587;28;20075;-78
2024/01/07 04:52:25;;;;;;;50.92;26.60;;;;;;;-1.22;98.08;98920.19;5028300;28;20029;-77
2024/01/07 04:54:52;;;;;;;53.10;29.50;;;;;;;-1.42;98.49;98919.00;5031963;28;20121;-78
2024/01/07 04:57:18;;;;;;;61.38;29.38;;;;;;;-1.06;97.22;98927.97;5033280;28;20033;-77
2024/01/07 04:59:43;;;;;;;52.75;26.98;;;;;;;-1.28;97.17;98922.69;5027242;28;20061;-78
2024/01/07 05:02:08;;;;;;;47.38;25.00;;;;;;;-0.95;97.17;98929.38;5030918;28;20029;-77
2024/01/07 05:04:35;;;;;;;48.35;24.80;;;;;;;-1.12;97.20;98935.72;5032750;28;20017;-77
2024/01/07 05:07:01;;;;;;;49.28;26.35;;;;;;;-1.38;97.50;98943.88;5028121;28;20038;-77
2024/01/07 05:09:26;;;;;;;46.65;24.92;;;;;;;-1.54;97.13;98941.31;5032984;28;20030;-77
2024/01/07 05:11:51;;;;;;;40.83;21.73;;;;;;;-1.24;97.82;98945.75;5034313;28;20043;-77
2024/01/07 05:14:17;;;;;;;38.25;22.85;;;;;;;-1.58;97.08;98935.59;5031336;28;20021;-77
2024/01/07 05:16:42;;;;;;;47.72;24.83;;;;;;;-1.03;97.67;98947.78;5029975;28;20041;-77
2024/01/07 05:19:07;;;;;;;45.83;23.40;;;;;;;-1.44;96.52;98957.59;5032726;28;20041;-78
2024/01/07 05:21:33;;;;;;;40.60;21.02;;;;;;;-1.77;96.38;98961.34;5029728;28;20048;-77
2024/01/07 05:23:58;;;;;;;42.58;21.73;;;;;;;-1.09;97.98;98953.72;5031812;28;20036;-79
2024/01/07 05:26:23;;;;;;;33.95;19.63;;;;;;;-1.71;97.55;98965.88;5032477;28;20075;-79
2024/01/07 05:28:49;;;;;;;34.63;20.63;;;;;;;-1.86;97.12;98963.16;5027308;28;20026;-79
2024/01/07 05:31:15;;;;;;;31.08;18.95;;;;;;;-1.81;97.42;98968.69;5038923;28;20116;-79
2024/01/07 05:33:41;;;;;;;32.63;16.98;;;;;;;-1.93;97.44;98975.25;5031361;28;20112;-79
2024/01/07 05:36:07;;;;;;;34.85;19.75;;;;;;;-2.05;97.13;98973.94;5035411;28;20057;-78
2024/01/07 05:38:32;;;;;;;33.78;19.38;;;;;;;-1.63;96.94;98976.31;5031453;28;20502;-75
2024/01/07 05:40:58;;;;;;;36.40;20.17;;;;;;;-1.66;97.05;98977.47;5031817;28;20120;-76
2024/01/07 05:43:23;;;;;;;30.23;18.40;;;;;;;-2.05;96.67;98958.25;5033842;28;20493;-78
2024/01/07 05:45:48;;;;;;;35.85;19.40;;;;;;;-1.91;95.86;98978.53;5031374;28;20763;-78
2024/01/07 05:48:14;;;;;;;33.45;18.63;;;;;;;-1.75;95.91;98980.28;5036834;28;20037;-78
2024/01/07 05:50:39;;;;;;;34.00;18.67;;;;;;;-1.89;95.32;98986.19;5032379;28;20142;-78
2024/01/07 05:53:05;;;;;;;30.85;16.77;;;;;;;-2.18;95.32;98983.31;5035525;28;20131;-78
2024/01/07 05:55:30;;;;;;;31.38;16.25;;;;;;;-2.23;95.35;98981.19;5036585;28;20033;-79
2024/01/07 05:57:56;;;;;;;31.88;18.15;;;;;;;-1.19;96.25;99002.84;5029840;28;20048;-77
2024/01/07 06:00:21;;;;;;;36.00;18.10;;;;;;;-0.74;94.97;98995.06;5026076;28;20486;-77
2024/01/07 06:02:47;;;;;;;31.30;17.45;;;;;;;-1.97;93.22;99005.34;5031332;28;20167;-77
2024/01/07 06:05:12;;;;;;;26.88;16.38;;;;;;;-2.05;94.05;99007.94;5023313;28;20654;-76
2024/01/07 06:07:38;;;;;;;28.65;14.88;;;;;;;-1.79;93.96;99000.72;5025483;28;20057;-76
2024/01/07 06:10:03;;;;;;;24.27;14.00;;;;;;;-2.24;93.55;99007.47;5026812;28;20021;-76
2024/01/07 06:12:29;;;;;;;21.83;13.68;;;;;;;-2.20;94.29;99004.34;5028669;28;20029;-76
2024/01/07 06:14:54;;;;;;;22.35;14.07;;;;;;;-1.73;95.32;99015.78;5029897;28;20044;-76
2024/01/07 06:17:19;;;;;;;23.25;13.70;;;;;;;-1.89;93.33;99022.81;5026382;28;20036;-76
2024/01/07 06:19:45;;;;;;;23.27;14.52;;;;;;;-2.29;92.92;99027.06;5028635;28;20025;-76
2024/01/07 06:22:10;;;;;;;22.02;13.90;;;;;;;-1.73;92.60;99030.66;5027884;28;20053;-76
2024/01/07 06:24:36;;;;;;;20.20;12.30;;;;;;;-1.84;92.77;99023.97;5028606;28;20501;-76
2024/01/07 06:27:03;;;;;;;25.75;12.75;;;;;;;-2.39;92.12;99041.28;5027210;28;20036;-76
2024/01/07 06:29:29;;;;;;;20.30;13.27;;;;;;;-2.30;92.81;99029.84;5029875;28;20490;-78
2024/01/07 06:31:54;;;;;;;20.20;13.18;;;;;;;-1.93;93.37;99024.94;5030656;28;20044;-78
2024/01/07 06:34:21;;;;;;;25.45;14.32;;;;;;;-1.39;92.19;99048.72;5031458;28;20035;-79
2024/01/07 06:36:46;;;;;;;19.38;12.55;;;;;;;-1.91;91.44;99043.09;5032470;28;20064;-78
2024/01/07 06:39:12;;;;;;;20.38;13.63;;;;;;;-2.44;91.29;99044.38;5034101;28;20386;-79
2024/01/07 06:41:38;;;;;;;20.13;12.40;;;;;;;-1.79;93.82;99050.41;5035206;28;20059;-78
2024/01/07 06:44:03;;;;;;;25.85;13.20;;;;;;;-2.03;91.46;99058.28;5027380;28;20035;-76
2024/01/07 06:46:29;;;;;;;22.80;14.23;;;;;;;-2.33;92.16;99064.97;5028483;28;20548;-77
2024/01/07 06:48:54;;;;;;;28.17;13.90;;;;;;;-1.88;93.78;99066.31;5031668;28;20061;-77
2024/01/07 06:51:19;;;;;;;18.38;11.95;;;;;;;-2.02;92.37;99078.22;5030305;28;20482;-78
2024/01/07 06:53:45;;;;;;;22.13;14.38;;;;;;;-2.62;92.28;99076.84;5025482;28;20030;-77
2024/01/07 06:56:10;;;;;;;18.35;11.73;;;;;;;-2.41;93.02;99078.03;5028679;28;20087;-78
2024/01/07 06:58:36;;;;;;;23.92;14.02;;;;;;;-2.24;92.00;99078.84;5023064;28;20022;-77
2024/01/07 07:01:02;;;;;;;20.83;12.60;;;;;;;-1.89;92.13;99085.56;5025140;28;20040;-77
2024/01/07 07:03:27;;;;;;;20.92;13.35;;;;;;;-1.69;92.24;99086.88;5018582;28;20037;-78
2024/01/07 07:05:53;;;;;;;24.98;14.43;;;;;;;-2.21;92.37;99098.63;5028196;28;20033;-77
2024/01/07 07:08:18;;;;;;;24.75;14.88;;;;;;;-1.77;92.84;99110.44;5031485;28;20033;-77
2024/01/07 07:10:43;;;;;;;25.70;14.23;;;;;;;-1.70;90.64;99099.13;5029917;28;20486;-78
2024/01/07 07:13:09;;;;;;;23.65;13.85;;;;;;;-2.57;91.28;99108.50;5022452;28;20038;-77
2024/01/07 07:15:35;;;;;;;22.77;13.77;;;;;;;-2.50;91.67;99110.34;5023758;28;20043;-78
2024/01/07 07:18:01;;;;;;;22.55;13.82;;;;;;;-2.53;92.74;99109.81;5027326;28;20030;-78
2024/01/07 07:20:26;;;;;;;25.17;14.18;;;;;;;-2.34;92.48;99112.97;5026780;28;20163;-79
2024/01/07 07:22:51;;;;;;;26.35;15.25;;;;;;;-2.08;92.14;99119.91;5033654;28;20045;-79
2024/01/07 07:25:17;;;;;;;31.00;15.93;;;;;;;-2.60;92.40;99124.53;5026354;28;20032;-76
2024/01/07 07:27:43;;;;;;;30.83;16.20;;;;;;;-2.30;93.72;99129.16;5026647;28;20025;-78
2024/01/07 07:30:09;;;;;;;26.20;16.83;;;;;;;-2.23;92.98;99124.13;5023285;28;20482;-76
2024/01/07 07:32:35;;;;;;;32.40;16.58;;;;;;;-2.32;92.75;99136.34;5020658;28;20022;-77
2024/01/07 07:35:00;;;;;;;31.55;17.90;;;;;;;-2.12;93.30;99148.16;5025670;28;20025;-76
2024/01/07 07:37:26;;;;;;;37.53;16.80;;;;;;;-2.20;93.54;99150.75;5024448;28;20558;-76
2024/01/07 07:39:51;;;;;;;31.67;16.33;;;;;;;-2.23;92.35;99156.31;5019847;28;20465;-76
2024/01/07 07:42:16;;;;;;;32.42;15.57;;;;;;;-2.35;91.86;99163.63;5023066;28;20052;-75
2024/01/07 07:44:42;;;;;;;30.35;16.55;;;;;;;-1.69;92.01;99160.13;5028514;28;20034;-76
2024/01/07 07:47:11;;;;;;;25.23;15.88;;;;;;;-2.15;90.95;99169.41;5020668;28;20029;-75
2024/01/07 07:49:39;;;;;;;21.55;11.20;;;;;;;-2.57;89.90;99163.38;5021743;28;20034;-75
2024/01/07 07:52:05;;;;;;;20.58;11.40;;;;;;;-2.77;90.40;99175.84;5024465;28;20036;-76
2024/01/07 07:54:30;;;;;;;20.48;11.20;;;;;;;-2.37;91.28;99183.03;5026420;28;20069;-77
2024/01/07 07:56:55;;;;;;;15.60;10.85;;;;;;;-2.48;89.84;99189.38;5033386;28;20037;-76
2024/01/07 07:59:21;;;;;;;19.55;10.65;;;;;;;-2.86;89.65;99181.22;5016829;28;20050;-77
2024/01/07 08:01:46;;;;;;;17.60;10.27;;;;;;;-2.50;89.80;99191.34;5025043;28;20064;-76
2024/01/07 08:04:11;;;;;;;21.27;12.30;;;;;;;-2.13;91.04;99196.19;5022199;28;20061;-76
2024/01/07 08:06:37;;;;;;;22.73;10.95;;;;;;;-2.36;89.08;99201.19;5025225;28;20110;-76
2024/01/07 08:09:02;;;;;;;17.10;9.68;;;;;;;-2.80;89.18;99189.25;5015505;28;20112;-76
2024/01/07 08:11:29;;;;;;;16.33;9.85;;;;;;;-3.05;88.15;99209.16;5022938;28;20035;-76
2024/01/07 08:13:54;;;;;;;13.55;8.70;;;;;;;-2.35;90.05;99204.63;5021217;28;20033;-76
2024/01/07 08:16:20;;;;;;;20.98;11.00;;;;;;;-2.54;89.43;99215.31;5022217;28;20056;-75
2024/01/07 08:18:46;;;;;;;18.50;9.73;;;;;;;-2.60;89.65;99193.22;5024132;28;20033;-76
2024/01/07 08:21:11;;;;;;;15.45;9.55;;;;;;;-2.58;90.53;99219.22;5025327;28;20077;-76
2024/01/07 08:23:37;;;;;;;18.65;9.18;;;;;;;-2.74;89.65;99216.53;5026311;28;20047;-76
2024/01/07 08:26:03;;;;;;;12.15;8.00;;;;;;;-2.58;87.43;99219.22;5028095;28;20120;-76
2024/01/07 08:28:29;;;;;;;14.98;8.80;;;;;;;-2.89;87.90;99228.50;5029947;28;20124;-77
2024/01/07 08:30:56;;;;;;;10.77;7.45;;;;;;;-2.36;88.67;99218.69;5023758;28;20124;-76
2024/01/07 08:33:21;;;;;;;18.42;7.50;;;;;;;-2.43;87.03;99217.66;5028755;28;20037;-76
2024/01/07 08:35:46;;;;;;;12.65;7.13;;;;;;;-2.61;87.81;99238.63;5021122;28;20038;-76
2024/01/07 08:38:12;;;;;;;10.48;6.60;;;;;;;-2.44;86.71;99234.31;5025736;28;20117;-74
2024/01/07 08:40:37;;;;;;;9.50;5.75;;;;;;;-2.82;85.69;99240.00;5024991;28;20091;-76
2024/01/07 08:43:03;;;;;;;7.70;5.45;;;;;;;-1.79;87.49;99244.00;5028237;28;20041;-75
2024/01/07 08:45:28;;;;;;;11.10;4.78;;;;;;;-2.69;84.34;99249.06;5020621;28;20034;-75
2024/01/07 08:47:54;;;;;;;9.40;5.50;;;;;;;-3.04;84.04;99249.16;5026257;28;20742;-75
2024/01/07 08:50:19;;;;;;;8.65;5.22;;;;;;;-2.87;85.40;99250.06;5019222;28;20043;-75
2024/01/07 08:52:46;;;;;;;8.82;5.68;;;;;;;-3.02;84.03;99268.09;5025834;28;20026;-75
2024/01/07 08:55:11;;;;;;;10.25;6.30;;;;;;;-3.14;84.53;99261.44;5020529;28;20044;-75
2024/01/07 08:57:38;;;;;;;12.75;7.30;;;;;;;-2.66;86.74;99264.41;5027492;28;20029;-85
2024/01/07 09:00:04;;;;;;;17.08;6.38;;;;;;;-2.89;84.67;99272.91;5007358;28;20048;-76
2024/01/07 09:02:30;;;;;;;8.68;5.18;;;;;;;-2.91;84.42;99280.06;5019293;28;20029;-75
2024/01/07 09:04:57;;;;;;;12.88;6.03;;;;;;;-3.25;83.66;99279.97;5022523;28;20195;-75
2024/01/07 09:07:23;;;;;;;12.55;6.68;;;;;;;-3.04;84.64;99289.09;5025006;28;20374;-76
2024/01/07 09:09:48;;;;;;;11.90;5.90;;;;;;;-2.59;86.17;99277.66;5028976;28;20036;-76
2024/01/07 09:12:13;;;;;;;13.32;6.72;;;;;;;-2.67;84.26;99294.13;5031252;28;20521;-74
2024/01/07 09:14:39;;;;;;;7.30;5.38;;;;;;;-3.19;83.25;99295.84;5031978;28;20403;-75
2024/01/07 09:17:04;;;;;;;9.90;7.10;;;;;;;-2.82;83.80;99300.88;5020042;28;20029;-75
2024/01/07 09:19:30;;;;;;;7.82;5.38;;;;;;;-3.26;82.76;99305.25;5028790;28;20065;-75
2024/01/07 09:21:55;;;;;;;10.13;5.55;;;;;;;-3.32;83.52;99308.44;5026825;28;20124;-75
2024/01/07 09:24:20;;;;;;;11.07;6.72;;;;;;;-3.18;83.58;99305.31;5023589;28;20111;-75
2024/01/07 09:26:46;;;;;;;7.57;4.85;;;;;;;-3.15;83.42;99312.88;5027801;28;20044;-75
2024/01/07 09:29:12;;;;;;;11.40;5.78;;;;;;;-3.18;82.62;99320.16;5028475;28;20021;-75
2024/01/07 09:31:37;;;;;;;12.65;6.38;;;;;;;-3.24;82.38;99316.38;5029335;28;20113;-75
2024/01/07 09:34:04;;;;;;;9.50;6.65;;;;;;;-2.94;82.59;99327.38;5029712;28;21574;-75
2024/01/07 09:36:29;;;;;;;12.52;6.30;;;;;;;-3.12;81.92;99333.44;5031391;28;20083;-75
2024/01/07 09:38:54;;;;;;;7.32;5.20;;;;;;;-3.32;82.12;99331.13;5030175;28;20026;-75
2024/01/07 09:41:20;;;;;;;11.57;5.20;;;;;;;-3.17;82.41;99342.69;5031247;28;20548;-75
2024/01/07 09:43:45;;;;;;;9.02;6.07;;;;;;;-2.89;82.14;99346.03;5031917;28;20092;-75
2024/01/07 09:46:13;;;;;;;11.27;6.40;;;;;;;-2.95;81.38;99349.25;5029914;28;20033;-76
2024/01/07 09:48:38;;;;;;;14.60;7.60;;;;;;;-3.15;82.25;99346.78;5030972;28;20079;-77
2024/01/07 09:51:07;;;;;;;11.05;6.78;;;;;;;-2.45;84.61;99343.25;5025739;28;20406;-75
2024/01/07 09:53:35;;;;;;;10.88;6.90;;;;;;;-3.21;81.32;99360.41;5025912;28;20476;-75
2024/01/07 09:56:20;;;;;;;11.73;5.75;;;;;;;-3.04;81.63;99366.63;5027302;28;20461;-75
2024/01/07 09:58:49;;;;;;;7.88;5.10;;;;;;;-3.05;81.55;99372.81;5029355;28;20478;-75
2024/01/07 10:01:15;;;;;;;10.65;5.90;;;;;;;-3.08;80.11;99368.69;5024112;28;20029;-76
2024/01/07 10:03:41;;;;;;;9.48;4.35;;;;;;;-3.30;80.03;99361.31;5026515;28;20035;-75
2024/01/07 10:06:06;;;;;;;7.50;4.97;;;;;;;-3.03;80.16;99355.19;5027107;28;20517;-74
2024/01/07 10:08:32;;;;;;;8.32;4.38;;;;;;;-3.13;80.76;99370.94;5026872;28;20660;-75
2024/01/07 10:10:57;;;;;;;6.82;5.03;;;;;;;-2.86;80.31;99359.59;5032899;28;20034;-75
2024/01/07 10:13:23;;;;;;;7.63;5.00;;;;;;;-3.01;79.33;99368.13;5043290;28;20128;-76
2024/01/07 10:15:48;;;;;;;7.38;4.35;;;;;;;-3.11;79.58;99368.19;5045894;28;20048;-76
2024/01/07 10:18:14;;;;;;;6.05;4.78;;;;;;;-3.12;79.10;99367.34;5047071;28;20041;-75
2024/01/07 10:20:39;;;;;;;5.70;3.25;;;;;;;-3.29;77.89;99368.19;5035698;28;20487;-75
2024/01/07 10:23:07;;;;;;;4.30;3.22;;;;;;;-3.36;77.18;99374.94;5031784;28;20037;-75
2024/01/07 10:25:32;;;;;;;3.75;3.35;;;;;;;-3.00;77.80;99367.13;5025981;28;20087;-75
2024/01/07 10:28:02;;;;;;;5.15;3.58;;;;;;;-2.83;77.57;99369.75;5025660;28;20033;-75
2024/01/07 10:30:28;;;;;;;5.97;3.67;;;;;;;-2.66;76.65;99371.50;5025892;28;20041;-76
2024/01/07 10:32:57;;;;;;;6.05;3.80;;;;;;;-3.07;76.39;99375.56;5028897;28;20040;-75
2024/01/07 10:35:33;;;;;;;4.68;3.38;;;;;;;-3.42;74.11;99378.16;5026704;28;20041;-75
2024/01/07 10:37:59;;;;;;;3.22;2.92;;;;;;;-3.50;73.86;99367.63;5024231;28;20029;-78
2024/01/07 10:40:26;;;;;;;6.50;2.88;;;;;;;-3.41;74.65;99371.97;5024290;28;20029;-78
2024/01/07 10:42:52;;;;;;;6.70;3.65;;;;;;;-2.93;75.85;99376.03;5022241;28;20124;-79
2024/01/07 10:45:18;;;;;;;4.97;3.08;;;;;;;-3.22;74.44;99378.84;5023597;28;20045;-78
2024/01/07 10:47:49;;;;;;;4.28;2.60;;;;;;;-2.96;77.35;99368.47;5023527;28;20033;-79
2024/01/07 10:50:16;;;;;;;5.82;3.30;;;;;;;-3.55;74.77;99358.59;5017079;28;20043;-78
2024/01/07 10:52:42;;;;;;;3.22;2.47;;;;;;;-3.48;74.40;99372.69;5023089;28;20040;-78
2024/01/07 10:55:10;;;;;;;5.38;3.03;;;;;;;-3.53;74.77;99370.53;5021686;28;20122;-78
2024/01/07 10:57:44;;;;;;;6.80;2.65;;;;;;;-3.25;76.91;99377.34;5022966;28;20512;-78
2024/01/07 11:00:18;;;;;;;4.93;3.03;;;;;;;-3.39;75.16;99374.44;5020093;28;20018;-77
2024/01/07 11:02:58;;;;;;;4.95;3.40;;;;;;;-3.63;74.53;99380.22;5020957;28;20084;-78
2024/01/07 11:05:33;;;;;;;6.53;3.63;;;;;;;-3.53;75.46;99380.97;5022853;28;20505;-78
2024/01/07 11:08:12;;;;;;;3.67;2.78;;;;;;;-3.73;74.82;99370.78;5019784;28;20037;-78
2024/01/07 11:10:48;;;;;;;3.35;2.60;;;;;;;-3.30;75.81;99390.00;5022359;28;20087;-77
2024/01/07 11:13:31;;;;;;;;;;;;;;;-3.39;74.95;99388.31;5028252;28;20029;-78